createdAt,value
2019-03-30T00:04:50.913Z,14.80
2019-03-30T00:09:47.220Z,15.73
2019-03-30T00:14:43.238Z,13.90
2019-03-30T00:19:40.092Z,15.50
2019-03-30T00:24:36.743Z,14.37
2019-03-30T00:29:32.675Z,13.93
2019-03-30T00:34:28.592Z,14.83
2019-03-30T00:39:24.509Z,14.73
2019-03-30T00:44:20.421Z,15.43
2019-03-30T00:49:16.331Z,15.20
2019-03-30T00:54:15.912Z,14.17
2019-03-30T00:59:11.933Z,13.67
2019-03-30T01:04:07.842Z,14.67
2019-03-30T01:09:05.502Z,12.80
2019-03-30T01:14:01.415Z,13.53
2019-03-30T01:18:57.351Z,13.70
2019-03-30T01:23:53.941Z,12.53
2019-03-30T01:28:49.878Z,13.40
2019-03-30T01:33:45.786Z,14.07
2019-03-30T01:38:41.695Z,11.97
2019-03-30T01:43:37.608Z,12.20
2019-03-30T01:48:33.578Z,11.70
2019-03-30T01:53:29.457Z,11.47
2019-03-30T01:58:25.395Z,12.10
2019-03-30T02:03:21.305Z,11.97
2019-03-30T02:08:17.218Z,11.40
2019-03-30T02:13:13.150Z,12.10
2019-03-30T02:18:09.161Z,10.30
2019-03-30T02:23:05.276Z,10.97
2019-03-30T02:28:01.187Z,10.70
2019-03-30T02:32:57.199Z,10.00
2019-03-30T02:37:53.111Z,10.97
2019-03-30T02:42:49.027Z,9.57
2019-03-30T02:47:44.946Z,10.63
2019-03-30T02:52:40.876Z,9.87
2019-03-30T02:57:36.813Z,10.23
2019-03-30T03:02:32.807Z,9.40
2019-03-30T03:07:28.729Z,9.70
2019-03-30T03:12:24.641Z,9.57
2019-03-30T03:17:20.561Z,9.03
2019-03-30T03:22:16.488Z,9.30
2019-03-30T03:27:12.371Z,9.20
2019-03-30T03:32:08.309Z,10.90
2019-03-30T03:37:04.260Z,9.07
2019-03-30T03:42:00.259Z,8.43
2019-03-30T03:46:56.190Z,9.10
2019-03-30T03:51:52.179Z,8.43
2019-03-30T03:56:48.219Z,8.20
2019-03-30T04:01:45.564Z,8.43
2019-03-30T04:06:43.398Z,8.07
2019-03-30T04:11:39.409Z,8.20
2019-03-30T04:16:35.322Z,7.93
2019-03-30T04:21:43.859Z,7.77
2019-03-30T04:26:29.135Z,8.20
2019-03-30T04:31:25.062Z,7.80
2019-03-30T04:36:21.025Z,8.07
2019-03-30T04:41:16.918Z,8.47
2019-03-30T04:46:12.927Z,8.07
2019-03-30T04:51:08.851Z,9.03
2019-03-30T04:56:04.908Z,9.30
2019-03-30T05:01:00.860Z,8.67
2019-03-30T05:05:56.785Z,7.23
2019-03-30T05:10:52.698Z,8.63
2019-03-30T05:15:48.715Z,8.53
2019-03-30T05:20:44.623Z,8.33
2019-03-30T05:25:40.885Z,7.83
2019-03-30T05:30:38.201Z,7.63
2019-03-30T05:35:34.975Z,8.50
2019-03-30T05:40:31.235Z,7.90
2019-03-30T05:45:27.194Z,8.67
2019-03-30T05:50:23.102Z,8.00
2019-03-30T05:55:19.018Z,6.90
2019-03-30T06:00:17.236Z,7.07
2019-03-30T06:05:13.279Z,7.17
2019-03-30T06:10:09.498Z,7.57
2019-03-30T06:15:12.431Z,7.00
2019-03-30T06:20:11.460Z,6.00
2019-03-30T06:25:09.378Z,6.90
2019-03-30T06:30:17.964Z,7.47
2019-03-30T06:35:14.063Z,7.60
2019-03-30T06:40:12.043Z,7.70
2019-03-30T06:45:11.393Z,8.10
2019-03-30T06:50:11.415Z,8.27
2019-03-30T06:55:09.607Z,8.37
2019-03-30T07:00:09.202Z,8.67
2019-03-30T07:05:09.580Z,9.40
2019-03-30T07:10:06.194Z,10.70
2019-03-30T07:15:02.827Z,9.47
2019-03-30T07:20:00.959Z,9.83
2019-03-30T07:24:57.503Z,11.50
2019-03-30T07:29:53.632Z,11.00
2019-03-30T07:34:51.465Z,10.43
2019-03-30T07:39:48.571Z,10.13
2019-03-30T07:44:44.602Z,9.53
2019-03-30T07:49:40.531Z,10.87
2019-03-30T07:54:38.051Z,11.20
2019-03-30T07:59:33.951Z,11.03
2019-03-30T08:04:29.865Z,10.57
2019-03-30T08:09:25.873Z,12.10
2019-03-30T08:14:21.786Z,9.90
2019-03-30T08:19:17.697Z,11.17
2019-03-30T08:24:15.740Z,11.40
2019-03-30T08:29:14.807Z,9.80
2019-03-30T08:34:10.806Z,11.30
2019-03-30T08:39:06.714Z,10.70
2019-03-30T08:44:02.755Z,11.47
2019-03-30T08:48:58.667Z,12.43
2019-03-30T08:53:55.186Z,10.97
2019-03-30T08:58:51.227Z,12.30
2019-03-30T09:03:50.351Z,11.20
2019-03-30T09:08:46.257Z,13.60
2019-03-30T09:13:42.410Z,12.10
2019-03-30T09:18:38.356Z,11.47
2019-03-30T09:23:34.289Z,11.87
2019-03-30T09:28:30.608Z,12.23
2019-03-30T09:33:26.531Z,11.50
2019-03-30T09:38:22.452Z,12.57
2019-03-30T09:43:18.377Z,11.63
2019-03-30T09:48:16.779Z,12.77
2019-03-30T09:53:12.688Z,12.27
2019-03-30T09:58:09.043Z,11.90
2019-03-30T10:03:06.268Z,11.53
2019-03-30T10:08:03.493Z,10.63
2019-03-30T10:12:59.624Z,12.17
2019-03-30T10:17:55.584Z,10.70
2019-03-30T10:22:52.746Z,10.93
2019-03-30T10:27:48.659Z,9.03
2019-03-30T10:32:44.577Z,9.70
2019-03-30T10:37:40.486Z,11.30
2019-03-30T10:42:39.173Z,12.73
2019-03-30T10:47:35.269Z,10.80
2019-03-30T10:52:31.179Z,11.17
2019-03-30T10:57:27.115Z,10.70
2019-03-30T11:02:23.036Z,10.30
2019-03-30T11:07:18.957Z,10.20
2019-03-30T11:12:14.966Z,10.90
2019-03-30T11:17:10.880Z,12.80
2019-03-30T11:22:06.786Z,11.47
2019-03-30T11:27:02.902Z,11.80
2019-03-30T11:31:58.814Z,13.80
2019-03-30T11:36:54.726Z,10.90
2019-03-30T11:41:50.642Z,9.07
2019-03-30T11:46:46.555Z,7.60
2019-03-30T11:51:42.469Z,7.30
2019-03-30T11:56:38.408Z,6.97
2019-03-30T12:01:34.923Z,6.83
2019-03-30T12:06:30.832Z,5.23
2019-03-30T12:11:26.749Z,6.50
2019-03-30T12:16:22.664Z,5.70
2019-03-30T12:21:18.570Z,6.20
2019-03-30T12:26:14.486Z,3.93
2019-03-30T12:31:10.395Z,6.50
2019-03-30T12:36:06.376Z,5.10
2019-03-30T12:41:02.281Z,6.87
2019-03-30T12:45:58.195Z,5.97
2019-03-30T12:50:54.278Z,5.30
2019-03-30T12:55:50.226Z,6.87
2019-03-30T13:00:46.641Z,7.47
2019-03-30T13:05:42.552Z,6.07
2019-03-30T13:10:38.462Z,6.23
2019-03-30T13:15:34.475Z,5.63
2019-03-30T13:20:30.410Z,9.70
2019-03-30T13:25:27.519Z,10.57
2019-03-30T13:30:23.491Z,11.20
2019-03-30T13:35:19.436Z,7.63
2019-03-30T13:40:15.353Z,9.33
2019-03-30T13:45:11.365Z,7.53
2019-03-30T13:50:07.674Z,7.63
2019-03-30T13:55:09.509Z,7.60
2019-03-30T14:00:06.646Z,9.43
2019-03-30T14:05:04.056Z,5.27
2019-03-30T14:09:59.981Z,7.30
2019-03-30T14:14:57.125Z,9.87
2019-03-30T14:19:53.463Z,9.23
2019-03-30T14:24:50.067Z,7.27
2019-03-30T14:29:48.759Z,8.13
2019-03-30T14:34:44.677Z,10.47
2019-03-30T14:39:40.589Z,7.77
2019-03-30T14:44:36.497Z,11.27
2019-03-30T14:49:32.493Z,11.27
2019-03-30T14:54:35.310Z,10.20
2019-03-30T14:59:31.401Z,9.13
2019-03-30T15:04:27.309Z,12.23
2019-03-30T15:09:23.289Z,11.63
2019-03-30T15:14:19.238Z,13.20
2019-03-30T15:19:15.159Z,11.87
2019-03-30T15:24:16.285Z,12.80
2019-03-30T15:29:12.254Z,11.37
2019-03-30T15:34:08.265Z,11.47
2019-03-30T15:39:05.532Z,12.07
2019-03-30T15:44:01.846Z,12.07
2019-03-30T15:48:59.060Z,10.53
2019-03-30T15:53:56.197Z,10.33
2019-03-30T15:58:52.138Z,11.37
2019-03-30T16:03:48.050Z,11.83
2019-03-30T16:08:43.966Z,10.83
2019-03-30T16:13:39.879Z,10.40
2019-03-30T16:18:35.795Z,12.80
2019-03-30T16:23:31.705Z,11.77
2019-03-30T16:28:27.617Z,10.60
2019-03-30T16:33:23.531Z,12.00
2019-03-30T16:38:19.570Z,12.83
2019-03-30T16:43:15.478Z,10.07
2019-03-30T16:48:14.597Z,11.20
2019-03-30T16:53:09.199Z,9.93
2019-03-30T16:58:05.139Z,9.07
2019-03-30T17:03:02.055Z,9.93
2019-03-30T17:07:57.969Z,10.27
2019-03-30T17:12:53.883Z,10.70
2019-03-30T17:17:49.810Z,11.83
2019-03-30T17:22:45.698Z,10.73
2019-03-30T17:27:41.611Z,11.73
2019-03-30T17:32:37.621Z,11.07
2019-03-30T17:37:33.538Z,10.67
2019-03-30T17:42:29.476Z,10.43
2019-03-30T17:47:25.382Z,10.30
2019-03-30T17:52:21.294Z,11.67
2019-03-30T17:57:17.747Z,13.67
2019-03-30T18:02:13.855Z,10.80
2019-03-30T18:07:13.429Z,10.90
2019-03-30T18:12:08.391Z,10.70
2019-03-30T18:17:04.540Z,11.27
2019-03-30T18:22:00.547Z,11.70
2019-03-30T18:26:56.542Z,12.03
2019-03-30T18:31:53.568Z,12.40
2019-03-30T18:36:49.780Z,11.77
2019-03-30T18:41:45.787Z,11.60
2019-03-30T18:46:41.699Z,17.00
2019-03-30T18:51:40.618Z,13.40
2019-03-30T18:56:36.553Z,15.40
2019-03-30T19:01:32.467Z,14.90
2019-03-30T19:06:28.384Z,14.27
2019-03-30T19:11:24.303Z,11.33
2019-03-30T19:16:20.226Z,11.40
2019-03-30T19:21:16.136Z,12.43
2019-03-30T19:26:12.055Z,10.80
2019-03-30T19:31:07.970Z,12.30
2019-03-30T19:36:03.890Z,13.23
2019-03-30T19:40:59.906Z,14.70
2019-03-30T19:45:55.823Z,13.70
2019-03-30T19:50:51.739Z,14.73
2019-03-30T19:55:47.682Z,15.40
2019-03-30T20:00:43.608Z,14.63
2019-03-30T20:05:39.525Z,14.73
2019-03-30T20:10:35.546Z,16.17
2019-03-30T20:15:31.596Z,16.60
2019-03-30T20:20:27.506Z,16.70
2019-03-30T20:25:26.026Z,14.83
2019-03-30T20:30:24.374Z,16.50
2019-03-30T20:35:20.213Z,15.30
2019-03-30T20:40:16.151Z,20.00
2019-03-30T20:45:13.673Z,19.57
2019-03-30T20:50:09.711Z,16.90
2019-03-30T20:55:06.542Z,14.73
2019-03-30T21:00:05.657Z,16.67
2019-03-30T21:05:01.785Z,18.60
2019-03-30T21:09:57.702Z,16.03
2019-03-30T21:14:53.640Z,17.70
2019-03-30T21:19:50.674Z,16.93
2019-03-30T21:24:47.346Z,17.23
2019-03-30T21:29:54.651Z,17.97
2019-03-30T21:34:44.826Z,18.43
2019-03-30T21:39:40.751Z,16.37
2019-03-30T21:44:36.657Z,20.43
2019-03-30T21:49:32.575Z,19.10
2019-03-30T21:54:34.561Z,24.67
2019-03-30T21:59:30.605Z,27.37
2019-03-30T22:04:26.513Z,27.50
2019-03-30T22:09:22.441Z,29.57
2019-03-30T22:14:18.441Z,32.27
2019-03-30T22:19:14.351Z,33.97
2019-03-30T22:24:16.122Z,36.50
2019-03-30T22:29:12.131Z,36.70
2019-03-30T22:34:08.051Z,36.67
2019-03-30T22:39:05.159Z,36.00
2019-03-30T22:44:01.183Z,35.13
2019-03-30T22:48:57.185Z,35.80
2019-03-30T22:53:53.680Z,34.13
2019-03-30T22:58:49.618Z,32.90
2019-03-30T23:03:45.634Z,34.37
2019-03-30T23:08:41.554Z,37.40
2019-03-30T23:13:38.204Z,32.17
2019-03-30T23:18:34.227Z,36.70
2019-03-30T23:23:30.140Z,37.73
2019-03-30T23:28:26.054Z,35.17
2019-03-30T23:33:22.035Z,34.43
2019-03-30T23:38:17.943Z,35.73
2019-03-30T23:43:13.854Z,34.03
2019-03-30T23:48:09.771Z,37.77
2019-03-30T23:53:07.424Z,37.40
2019-03-30T23:58:04.887Z,38.53
